createdAt,value
2022-11-05T09:17:38.302Z,8.20
2022-11-05T09:22:44.184Z,8.50
2022-11-05T09:27:46.981Z,8.70
2022-11-05T09:32:49.685Z,8.90
2022-11-05T09:37:55.606Z,9.10
2022-11-05T09:43:03.171Z,9.00
2022-11-05T09:48:15.420Z,9.10
2022-11-05T09:53:20.297Z,9.40
2022-11-05T09:58:44.224Z,9.40
2022-11-05T10:03:51.023Z,9.60
2022-11-05T10:09:11.305Z,9.80
2022-11-05T10:14:23.522Z,9.90
2022-11-05T10:19:36.394Z,10.00
2022-11-05T10:24:43.406Z,10.00
2022-11-05T10:29:47.070Z,9.80
2022-11-05T10:34:51.762Z,9.80
2022-11-05T10:39:55.329Z,10.00
2022-11-05T10:45:08.473Z,10.30
2022-11-05T10:50:18.171Z,10.20
2022-11-05T10:55:36.945Z,10.30
2022-11-05T11:00:40.345Z,10.10
2022-11-05T11:05:43.272Z,10.20
2022-11-05T11:10:52.255Z,10.30
2022-11-05T11:15:55.715Z,10.60
2022-11-05T11:21:14.661Z,10.90
2022-11-05T11:26:17.573Z,11.20
2022-11-05T11:31:26.250Z,11.40
2022-11-05T11:36:50.671Z,11.70
2022-11-05T11:42:03.742Z,11.90
2022-11-05T11:47:15.772Z,12.40
2022-11-05T11:52:30.795Z,12.60
2022-11-05T11:57:44.479Z,12.40
2022-11-05T12:03:21.586Z,11.90
2022-11-05T12:09:03.679Z,11.70
2022-11-05T12:14:34.872Z,11.10
2022-11-05T12:19:52.643Z,11.40
2022-11-05T12:25:18.524Z,11.30
2022-11-05T12:30:22.833Z,11.10
2022-11-05T12:35:57.437Z,11.10
2022-11-05T12:41:37.100Z,11.20
2022-11-05T12:47:03.567Z,11.40
2022-11-05T12:52:17.175Z,11.60
2022-11-05T12:57:22.664Z,11.50
2022-11-05T13:02:47.019Z,11.30
2022-11-05T13:08:23.746Z,11.40
2022-11-05T13:13:45.493Z,11.30
2022-11-05T13:19:09.905Z,11.50
2022-11-05T13:24:26.414Z,11.90
2022-11-05T13:29:47.995Z,12.30
2022-11-05T13:34:57.193Z,12.30
2022-11-05T13:40:06.353Z,12.50
2022-11-05T13:45:27.163Z,12.50
2022-11-05T13:50:46.173Z,12.20
2022-11-05T13:55:58.125Z,12.00
2022-11-05T14:01:46.964Z,12.10
2022-11-05T14:06:50.048Z,12.10
2022-11-05T14:11:56.677Z,12.20
2022-11-05T14:17:08.507Z,12.20
2022-11-05T14:22:32.954Z,12.20
2022-11-05T14:27:41.947Z,12.00
2022-11-05T14:32:50.123Z,11.50
2022-11-05T14:37:56.540Z,11.70
2022-11-05T14:43:02.619Z,11.70
2022-11-05T14:48:37.720Z,11.20
2022-11-05T14:53:41.006Z,11.30
2022-11-05T14:58:45.337Z,11.20
2022-11-05T15:04:16.964Z,11.20
2022-11-05T15:09:28.849Z,11.00
2022-11-05T15:14:52.078Z,10.80
2022-11-05T15:19:55.853Z,10.50
2022-11-05T15:24:58.983Z,10.20
2022-11-05T15:30:20.337Z,10.00
2022-11-05T15:35:29.757Z,9.60
2022-11-05T15:40:34.129Z,9.50
2022-11-05T15:45:36.960Z,9.20
2022-11-05T15:50:40.103Z,9.00
2022-11-05T15:55:55.889Z,8.80
2022-11-05T16:00:58.670Z,8.60
2022-11-05T16:06:02.445Z,8.40
2022-11-05T16:11:05.335Z,8.10
2022-11-05T16:16:26.176Z,7.90
2022-11-05T16:21:29.047Z,7.80
2022-11-05T16:27:01.671Z,7.50
2022-11-05T16:32:30.549Z,7.30
2022-11-05T16:37:45.236Z,7.10
2022-11-05T16:42:53.978Z,7.00
2022-11-05T16:47:56.774Z,6.80
2022-11-05T16:52:59.589Z,6.70
2022-11-05T16:58:02.467Z,6.60
2022-11-05T17:03:05.241Z,6.50
2022-11-05T17:08:08.849Z,6.40
2022-11-05T17:13:20.643Z,6.30
2022-11-05T17:18:23.933Z,6.30
2022-11-05T17:23:26.899Z,6.20
2022-11-05T17:28:30.547Z,6.10
2022-11-05T17:33:34.337Z,6.00
2022-11-05T17:38:37.588Z,6.00
2022-11-05T17:43:40.569Z,5.90
2022-11-05T17:48:44.781Z,5.80
2022-11-05T17:53:49.316Z,5.80
2022-11-05T17:58:52.121Z,5.70
2022-11-05T18:03:55.612Z,5.70
2022-11-05T18:08:58.360Z,5.60
2022-11-05T18:14:01.284Z,5.50
2022-11-05T18:19:04.258Z,5.50
2022-11-05T18:24:07.739Z,5.30
2022-11-05T18:29:10.709Z,5.40
2022-11-05T18:34:13.429Z,5.30
2022-11-05T18:39:16.186Z,5.40
2022-11-05T18:44:22.846Z,5.30
2022-11-05T18:49:25.942Z,5.30
2022-11-05T18:54:28.943Z,5.20
2022-11-05T18:59:39.753Z,5.30
2022-11-05T19:05:00.345Z,5.20
2022-11-05T19:10:06.997Z,5.20
2022-11-05T19:15:10.188Z,5.10
2022-11-05T19:20:13.388Z,5.00
2022-11-05T19:25:16.201Z,5.00
2022-11-05T19:30:19.026Z,5.00
2022-11-05T19:35:22.276Z,4.90
2022-11-05T19:40:25.330Z,4.70
2022-11-05T19:45:44.262Z,4.80
2022-11-05T19:50:48.046Z,4.70
2022-11-05T19:55:50.855Z,4.70
2022-11-05T20:00:56.167Z,4.60
2022-11-05T20:06:03.696Z,4.60
2022-11-05T20:11:07.042Z,4.60
2022-11-05T20:16:24.539Z,4.60
2022-11-05T20:21:27.281Z,4.50
2022-11-05T20:26:30.180Z,4.50
2022-11-05T20:31:32.946Z,4.40
2022-11-05T20:36:35.655Z,4.40
2022-11-05T20:41:38.811Z,4.40
2022-11-05T20:46:41.625Z,4.30
2022-11-05T20:51:44.342Z,4.30
2022-11-05T20:56:47.111Z,4.30
2022-11-05T21:01:52.131Z,4.30
2022-11-05T21:06:54.986Z,4.20
2022-11-05T21:12:12.923Z,4.20
2022-11-05T21:17:15.633Z,4.20
2022-11-05T21:22:18.469Z,4.30
2022-11-05T21:27:21.231Z,4.30
2022-11-05T21:32:23.932Z,4.30
2022-11-05T21:37:27.101Z,4.30
2022-11-05T21:42:30.539Z,4.30
2022-11-05T21:47:33.427Z,4.30
2022-11-05T21:52:54.700Z,4.30
2022-11-05T21:58:17.332Z,4.30
2022-11-05T22:03:20.067Z,4.30
2022-11-05T22:08:22.935Z,4.40
2022-11-05T22:13:25.619Z,4.30
2022-11-05T22:18:28.398Z,4.30
2022-11-05T22:23:31.087Z,4.30
2022-11-05T22:28:33.796Z,4.20
